Flight Track Log - Related Links

Times and Time Zones

All times are in EDT time to prevent confusion due to time zone crossing. See the ASA479 flight status page for this flight to view local times or setup timezone preferences in your user account.

Time Position Orientation Groundspeed Altitude Reporting Facility
EDT Latitude Longitude Course Direction KTS MPH feet Rate Location/Type
Sun 12:09:36 AM 33.9333 -118.4833 266° West 222 255 2,300  Level Southern California TRACON
Sun 12:10:06 AM 33.9303 -118.5347 260° West 242 278 3,600 2,308 Climbing Los Angeles Center
Sun 12:11:07 AM 33.9181 -118.6169 263° West 253 291 5,800 2,350 Climbing Los Angeles Center
Sun 12:12:06 AM 33.9078 -118.7117 263° West 273 314 8,300 2,622 Climbing Los Angeles Center
Sun 12:13:06 AM 33.8972 -118.8089 272° West 294 338 11,000 2,150 Climbing Los Angeles Center
Sun 12:14:06 AM 33.9011 -118.9217 302° West 310 357 12,600 2,000 Climbing Los Angeles Center
Sun 12:15:06 AM 33.9531 -119.0236 313° West 331 381 15,000 2,450 Climbing Los Angeles Center
Sun 12:16:06 AM 34.0217 -119.1136 310° West 342 394 17,500 2,300 Climbing Los Angeles Center
Sun 12:17:06 AM 34.0761 -119.1933 313° West 364 419 19,600 2,100 Climbing Los Angeles Center
Sun 12:18:06 AM 34.1547 -119.2967 311° West 378 435 21,700 2,100 Climbing Los Angeles Center
Sun 12:19:06 AM 34.2272 -119.3972 311° West 391 450 23,800 2,050 Climbing Los Angeles Center
Sun 12:20:06 AM 34.2997 -119.4983 312° West 396 456 25,800 1,700 Climbing Los Angeles Center
Sun 12:21:06 AM 34.3761 -119.6019 311° West 396 456 27,200 1,450 Climbing Los Angeles Center
Sun 12:22:06 AM 34.4522 -119.7083 317° Northwest 406 467 28,700 1,650 Climbing Los Angeles Center
Sun 12:23:06 AM 34.5369 -119.8053 329° Northwest 411 473 30,500 1,700 Climbing Los Angeles Center
Sun 12:24:06 AM 34.6369 -119.8781 327° Northwest 411 473 32,100 1,700 Climbing Los Angeles Center
Sun 12:25:06 AM 34.7308 -119.9531 325° Northwest 411 473 33,900 1,120 Climbing Los Angeles Center
Sun 12:27:35 AM 34.9586 -120.1453 327° Northwest 383 441 36,000 603 Climbing Oakland Center
Sun 12:28:35 AM 35.0467 -120.2156 325° Northwest 378 435 36,000  Level Oakland Center
Sun 12:29:35 AM 35.1306 -120.2883 324° Northwest 378 435 36,000  Level Oakland Center
Sun 12:30:35 AM 35.2164 -120.3636 327° Northwest 378 435 36,000  Level Oakland Center
Sun 12:31:35 AM 35.3022 -120.4317 322° Northwest 392 451 36,000  Level Oakland Center
Sun 12:32:35 AM 35.3944 -120.5203 328° Northwest 392 451 36,000  Level Oakland Center
Sun 12:33:35 AM 35.4761 -120.5836 326° Northwest 392 451 36,000  Level Oakland Center
Sun 12:34:35 AM 35.5639 -120.6572 326° Northwest 387 445 36,000  Level Oakland Center
Sun 12:35:35 AM 35.6517 -120.7308 327° Northwest 387 445 36,000  Level Oakland Center
Sun 12:36:35 AM 35.7394 -120.8022 324° Northwest 381 438 36,000  Level Oakland Center
Sun 12:37:35 AM 35.8292 -120.8814 327° Northwest 381 438 36,000  Level Oakland Center
Sun 12:38:35 AM 35.9189 -120.9531 349° North 381 438 36,000  Level Oakland Center
Sun 12:39:35 AM 36.0253 -120.9786 351° North 381 438 36,000  Level Oakland Center
Sun 12:40:35 AM 36.1358 -120.9992 351° North 389 448 36,000  Level Oakland Center
Sun 12:41:35 AM 36.2483 -121.0225 352° North 396 456 36,000  Level Oakland Center
Sun 12:42:35 AM 36.3611 -121.0433 352° North 396 456 36,000  Level Oakland Center
Sun 12:43:35 AM 36.4736 -121.0639 349° North 401 461 36,000  Level Oakland Center
Sun 12:44:35 AM 36.5842 -121.0900 352° North 406 467 36,000  Level Oakland Center
Sun 12:45:35 AM 36.6969 -121.1108 351° North 406 467 36,000  Level Oakland Center
Sun 12:46:35 AM 36.8075 -121.1317 355° North 406 467 36,000  Level Oakland Center
Sun 12:47:35 AM 36.9242 -121.1450 348° North 393 452 36,000  Level Oakland Center
Sun 12:48:35 AM 37.0347 -121.1739 353° North 393 452 36,000  Level Oakland Center
Sun 12:49:35 AM 37.1453 -121.1897 350° North 393 452 36,000  Level Oakland Center
Sun 12:50:35 AM 37.2578 -121.2136 350° North 393 452 36,000  Level Oakland Center
Sun 12:51:35 AM 37.3703 -121.2375 350° North 403 464 36,000  Level Oakland Center
Sun 12:52:35 AM 37.4850 -121.2639 351° North 409 471 36,000  Level Oakland Center
Sun 12:53:35 AM 37.5978 -121.2856 351° North 409 471 36,000  Level Oakland Center
Sun 12:54:35 AM 37.7081 -121.3069 351° North 409 471 36,000  Level Oakland Center
Sun 12:55:35 AM 37.8228 -121.3311 350° North 409 471 36,000  Level Oakland Center
Sun 12:56:35 AM 37.9333 -121.3553 350° North 409 471 36,000  Level Oakland Center
Sun 12:57:35 AM 38.0481 -121.3797 351° North 409 471 36,000  Level Oakland Center
Sun 12:58:35 AM 38.1647 -121.4042 350° North 409 471 36,000  Level Oakland Center
Sun 12:59:35 AM 38.2772 -121.4286 350° North 409 471 36,000  Level Oakland Center
Sun 01:00:35 AM 38.3939 -121.4558 354° North 415 478 36,000  Level Oakland Center
Sun 01:01:35 AM 38.5003 -121.4697 347° North 423 487 36,000  Level Oakland Center
Sun 01:02:35 AM 38.6169 -121.5050 353° North 433 498 36,000  Level Oakland Center
Sun 01:03:35 AM 38.7336 -121.5244 350° North 428 493 36,000  Level Oakland Center
Sun 01:04:35 AM 38.8522 -121.5522 351° North 428 493 36,000  Level Oakland Center
Sun 01:05:35 AM 38.9669 -121.5744 351° North 428 493 36,000 300 Level Oakland Center
Sun 01:06:35 AM 39.0836 -121.5994 351° North 428 493 36,600 900 Climbing Oakland Center
Sun 01:07:35 AM 39.1961 -121.6219 350° North 423 487 37,800 700 Climbing Oakland Center
Sun 01:08:35 AM 39.3083 -121.6469 350° North 418 481 38,000 100 Climbing Oakland Center
Sun 01:09:35 AM 39.4208 -121.6722 354° North 408 470 38,000  Level Oakland Center
Sun 01:10:35 AM 39.5397 -121.6897 351° North 397 457 38,000  Level Oakland Center
Sun 01:11:35 AM 39.6500 -121.7122 350° North 392 451 38,000  Level Oakland Center
Sun 01:12:35 AM 39.7644 -121.7378 351° North 397 457 38,000  Level Oakland Center
Sun 01:13:35 AM 39.8747 -121.7606 352° North 403 464 38,000  Level Oakland Center
Sun 01:14:35 AM 39.9789 -121.7808 350° North 413 475 38,000  Level Oakland Center
Sun 01:15:35 AM 40.0933 -121.8064 350° North 413 475 38,000  Level Oakland Center
Sun 01:17:20 AM 40.3000 -121.8553 350° North 411 473 38,000  Level Seattle Center
Sun 01:18:20 AM 40.4117 -121.8803 350° North 410 472 38,000  Level Seattle Center
Sun 01:19:21 AM 40.5228 -121.9058 350° North 409 471 38,000  Level Seattle Center
Sun 01:20:21 AM 40.6356 -121.9311 351° North 411 473 38,000  Level Seattle Center
Sun 01:21:21 AM 40.7481 -121.9558 350° North 411 473 38,000  Level Seattle Center
Sun 01:22:22 AM 40.8606 -121.9814 350° North 411 473 38,000  Level Seattle Center
Sun 01:23:22 AM 40.9731 -122.0075 351° North 411 473 38,000  Level Seattle Center
Sun 01:24:23 AM 41.0850 -122.0322 350° North 409 471 38,000  Level Seattle Center
Sun 01:25:23 AM 41.1861 -122.0547 350° North 408 470 38,000  Level Seattle Center
Sun 01:26:24 AM 41.3189 -122.0853 351° North 404 465 38,000  Level Seattle Center
Sun 01:27:24 AM 41.4300 -122.1100 351° North 405 466 38,000  Level Seattle Center
Sun 01:28:25 AM 41.5408 -122.1344 350° North 403 464 38,000  Level Seattle Center
Sun 01:29:25 AM 41.6531 -122.1603 351° North 406 467 38,000  Level Seattle Center
Sun 01:30:25 AM 41.7661 -122.1856 350° North 408 470 38,000  Level Seattle Center
Sun 01:31:26 AM 41.8786 -122.2114 350° North 407 468 38,000  Level Seattle Center
Sun 01:32:26 AM 41.9928 -122.2375 350° North 409 471 38,000  Level Seattle Center
Sun 01:33:27 AM 42.0842 -122.2583 350° North 410 472 38,000  Level Seattle Center
Sun 01:34:27 AM 42.1964 -122.2850 351° North 406 467 38,000  Level Seattle Center
Sun 01:35:28 AM 42.3069 -122.3086 350° North 402 463 38,000  Level Seattle Center
Sun 01:36:28 AM 42.4178 -122.3356 350° North 402 463 38,000  Level Seattle Center
Sun 01:37:28 AM 42.5278 -122.3622 350° North 401 461 38,000  Level Seattle Center
Sun 01:38:29 AM 42.6383 -122.3886 350° North 402 463 38,000  Level Seattle Center
Sun 01:39:29 AM 42.7614 -122.4175 350° North 405 466 38,000  Level Seattle Center
Sun 01:40:30 AM 42.8733 -122.4439 350° North 407 468 38,000  Level Seattle Center
Sun 01:41:30 AM 42.9856 -122.4703 350° North 409 471 38,000  Level Seattle Center
Sun 01:42:31 AM 43.0975 -122.4967 350° North 409 471 38,000  Level Seattle Center
Sun 01:43:31 AM 43.2094 -122.5236 350° North 408 470 38,000  Level Seattle Center
Sun 01:44:32 AM 43.3214 -122.5506 350° North 409 471 38,000  Level Seattle Center
Sun 01:45:32 AM 43.4339 -122.5772 350° North 410 472 38,000 -200 Level Seattle Center
Sun 01:46:32 AM 43.5461 -122.6039 350° North 410 472 37,600 -1,091 Descending Seattle Center
Sun 01:47:33 AM 43.6561 -122.6294 350° North 406 467 35,800 -1,736 Descending Seattle Center
Sun 01:48:33 AM 43.7672 -122.6575 350° North 405 466 34,100 -1,785 Descending Seattle Center
Sun 01:49:34 AM 43.8817 -122.6858 350° North 414 476 32,200 -2,380 Descending Seattle Center
Sun 01:50:34 AM 44.0172 -122.7194 350° North 415 478 29,300 -2,529 Descending Seattle Center
Sun 01:51:35 AM 44.1247 -122.7456 360° North 401 461 27,100 -2,132 Descending Seattle Center
Sun 01:52:35 AM 44.2281 -122.7450 North 385 443 25,000 -2,050 Descending Seattle Center
Sun 01:53:35 AM 44.3317 -122.7344 North 377 434 23,000 -1,934 Descending Seattle Center
Sun 01:54:36 AM 44.4256 -122.7244 North 373 429 21,100 -1,934 Descending Seattle Center
Sun 01:55:36 AM 44.5250 -122.7158 North 365 420 19,100 -1,884 Descending Seattle Center
Sun 01:56:37 AM 44.6225 -122.7058 North 359 413 17,300 -1,935 Descending Seattle Center
Sun 01:57:09 AM 44.6881 -122.6981 North 351 404 16,100 -2,065 Descending Seattle Center
Sun 01:58:10 AM 44.7833 -122.6831 15° North 341 392 14,100 -1,967 Descending Seattle Center
Sun 01:59:11 AM 44.8742 -122.6483 15° North 339 390 12,100 -1,686 Descending Seattle Center
Sun 02:00:11 AM 44.9608 -122.6156 13° North 319 367 10,700 -1,140 Descending Seattle Center
Sun 02:01:12 AM 45.0403 -122.5894 16° North 288 331 9,800 -1,140 Descending Seattle Center
Sun 02:02:12 AM 45.1106 -122.5614 14° North 267 307 8,400 -1,388 Descending Seattle Center
Sun 02:03:13 AM 45.1836 -122.5353 14° North 267 307 7,000 -1,230 Descending Seattle Center
Sun 02:04:14 AM 45.2525 -122.5108 14° North 263 303 5,900 -1,140 Descending Seattle Center
Sun 02:05:14 AM 45.3253 -122.4844 15° North 249 287 4,700 -942 Descending Seattle Center
Sun 02:06:15 AM 45.3858 -122.4611 15° North 234 269 4,000 -744 Descending Seattle Center
Sun 02:07:15 AM 45.4403 -122.4406 14° North 200 230 3,200 -744 Descending Seattle Center
Sun 02:08:16 AM 45.4889 -122.4228 336° Northwest 177 204 2,500 -443 Descending Seattle Center
Sun 02:09:17 AM 45.5253 -122.4456 301° West 164 189 2,300 -545 Descending Seattle Center
Sun 02:10:17 AM 45.5461 -122.4950 297° West 151 174 1,400 -793 Descending Seattle Center
Sun 02:11:18 AM 45.5664 -122.5508 297° West 148 170 700 -689 Descending Seattle Center

Login

Don't have an account? Register now (free) for customized features, flight alerts, and more!